Date,TemperatureHighF,TemperatureAvgF,TemperatureLowF,DewpointHighF,DewpointAvgF,DewpointLowF,HumidityHigh,HumidityAvg,HumidityLow,PressureMaxIn,PressureMinIn,WindSpeedMaxMPH,WindSpeedAvgMPH,GustSpeedMaxMPH,PrecipitationSumIn
2013-2-1,36,18,10,28,15,8,95,88,65,0.00,40.00,6,2,6,0.00
2013-2-2,31,18,8,25,15,5,95,88,70,0.00,40.00,5,2,7,0.00
2013-2-3,41,23,15,25,18,12,94,84,51,0.00,40.00,8,3,9,0.00
2013-2-4,39,20,7,24,15,4,93,82,50,0.00,40.00,5,2,6,0.00
2013-2-5,44,26,11,29,19,9,94,78,40,0.00,40.00,7,2,8,0.00
2013-2-6,46,32,20,28,25,18,92,76,41,0.00,40.00,10,4,12,0.00
2013-2-7,42,26,11,26,20,9,94,78,43,0.00,40.00,11,3,13,0.00
2013-2-8,43,32,22,34,26,20,95,81,50,0.00,40.00,24,7,32,0.00
2013-2-9,35,28,24,27,24,22,95,85,70,0.00,40.00,16,5,22,0.00
2013-2-10,31,25,20,24,21,18,92,83,67,0.00,40.00,10,5,13,0.00
2013-2-11,32,21,11,21,17,9,93,85,55,0.00,40.00,13,3,13,0.00
2013-2-12,29,18,2,20,13,-1,91,81,60,0.00,40.00,10,3,11,0.00
2013-2-13,42,29,24,25,21,19,88,74,44,0.00,40.00,8,3,9,0.00
2013-2-14,42,31,20,27,24,18,93,76,50,0.00,40.00,8,3,12,0.00
2013-2-15,41,26,17,26,20,15,94,81,44,0.00,40.00,6,2,9,0.00
2013-2-16,48,27,15,27,21,13,94,80,37,0.00,40.00,6,2,8,0.00
2013-2-17,45,32,22,27,22,17,94,68,39,0.00,40.00,21,7,25,0.00
2013-2-18,39,26,14,21,17,12,91,71,35,0.00,40.00,7,3,11,0.00
2013-2-19,53,38,21,24,19,14,92,51,21,0.00,40.00,9,4,14,0.00
2013-2-20,44,36,29,31,25,19,88,66,39,0.00,40.00,16,6,20,0.00
2013-2-21,36,29,21,27,20,11,95,73,40,0.00,40.00,17,7,21,0.00
2013-2-22,37,27,18,20,17,14,87,66,39,0.00,40.00,15,5,18,0.00
2013-2-23,34,28,22,29,19,13,89,70,44,0.00,40.00,29,9,36,0.00
2013-2-24,34,26,19,20,17,15,86,68,47,0.00,40.00,23,10,30,0.00
2013-2-25,40,25,10,24,15,8,91,69,34,0.00,40.00,18,3,22,0.00
2013-2-26,37,27,21,24,19,15,92,73,45,0.00,40.00,17,6,20,0.00
2013-2-27,37,25,13,19,15,10,90,67,32,0.00,40.00,9,3,10,0.00
2013-2-28,46,28,15,26,16,11,90,65,24,0.00,40.00,8,3,9,0.00